Time;durP1;ratioP1;P1;durP2;ratioP2;P2;SDS_P1;SDS_P2;PMS_P1;PMS_P2;Temp;Humidity;BMP_temperature;BMP_pressure;BME280_temperature;BME280_humidity;BME280_pressure;Samples;Min_cycle;Max_cycle;Signal;HPM_P1;HPM_P2
2023/09/27 00:01:33;;;;;;;;;;;;;;;;;;5112508;28;962;-66
2023/09/27 00:03:59;;;;;;;;;;;;;;;;;;5112186;28;1894;-66
2023/09/27 00:06:24;;;;;;;;;;;;;;;;;;5094375;28;1325;-67
2023/09/27 00:08:49;;;;;;;;;;;;;;;;;;5110368;28;1207;-67
2023/09/27 00:11:14;;;;;;;;;;;;;;;;;;5112456;28;950;-67
2023/09/27 00:13:40;;;;;;;;;;;;;;;;;;5111872;28;1042;-68
2023/09/27 00:16:05;;;;;;;;;;;;;;;;;;5115020;28;813;-67
2023/09/27 00:18:30;;;;;;;;;;;;;;;;;;5114411;28;1372;-68
2023/09/27 00:20:55;;;;;;;;;;;;;;;;;;5112923;28;1253;-66
2023/09/27 00:23:21;;;;;;;;;;;;;;;;;;5114994;28;1914;-66
2023/09/27 00:25:46;;;;;;;;;;;;;;;;;;5114618;28;884;-66
2023/09/27 00:28:11;;;;;;;;;;;;;;;;;;5114395;28;817;-66
2023/09/27 00:30:36;;;;;;;;;;;;;;;;;;5113259;28;1251;-66
2023/09/27 00:33:02;;;;;;;;;;;;;;;;;;5113538;28;1319;-67
2023/09/27 00:35:30;;;;;;;;;;;;;;;;;;5114664;28;915;-67
2023/09/27 00:37:58;;;;;;;;;;;;;;;;;;5114084;27;883;-67
2023/09/27 00:40:25;;;;;;;;;;;;;;;;;;5114929;28;895;-66
2023/09/27 00:42:50;;;;;;;;;;;;;;;;;;5114048;28;1917;-66
2023/09/27 00:45:17;;;;;;;;;;;;;;;;;;5114108;28;947;-66
2023/09/27 00:47:42;;;;;;;;;;;;;;;;;;5114525;28;852;-66
2023/09/27 00:50:11;;;;;;;;;;;;;;;;;;5114379;28;820;-66
2023/09/27 00:52:38;;;;;;;;;;;;;;;;;;5114312;28;989;-66
2023/09/27 00:55:04;;;;;;;;;;;;;;;;;;5112305;28;1201;-66
2023/09/27 00:57:29;;;;;;;;;;;;;;;;;;5114526;28;875;-67
2023/09/27 00:59:55;;;;;;;;;;;;;;;;;;5114284;28;911;-66
2023/09/27 01:02:20;;;;;;;;;;;;;;;;;;5114055;28;1918;-67
2023/09/27 01:04:45;;;;;;;;;;;;;;;;;;5114293;28;865;-67
2023/09/27 01:07:10;;;;;;;;;;;;;;;;;;5113853;28;884;-67
2023/09/27 01:09:37;;;;;;;;;;;;;;;;;;5114590;28;888;-67
2023/09/27 01:12:03;;;;;;;;;;;;;;;;;;5113846;28;882;-67
2023/09/27 01:14:30;;;;;;;;;;;;;;;;;;5114613;28;823;-67
2023/09/27 01:16:55;;;;;;;;;;;;;;;;;;5113843;27;900;-67
2023/09/27 01:19:20;;;;;;;;;;;;;;;;;;5114380;28;773;-67
2023/09/27 01:21:45;;;;;;;;;;;;;;;;;;5114647;28;828;-67
2023/09/27 01:24:11;;;;;;;;;;;;;;;;;;5112947;28;1898;-68
2023/09/27 01:26:37;;;;;;;;;;;;;;;;;;5113930;28;844;-67
2023/09/27 01:29:03;;;;;;;;;;;;;;;;;;5113614;28;902;-67
2023/09/27 01:31:29;;;;;;;;;;;;;;;;;;5114481;28;860;-67
2023/09/27 01:33:55;;;;;;;;;;;;;;;;;;5113484;28;1206;-68
2023/09/27 01:36:22;;;;;;;;;;;;;;;;;;5113978;28;912;-67
2023/09/27 01:38:47;;;;;;;;;;;;;;;;;;5104462;28;1143;-67
2023/09/27 01:41:13;;;;;;;;;;;;;;;;;;5090990;28;1324;-67
2023/09/27 01:43:38;;;;;;;;;;;;;;;;;;5091431;28;1910;-68
2023/09/27 01:46:04;;;;;;;;;;;;;;;;;;5093379;28;808;-67
2023/09/27 01:48:29;;;;;;;;;;;;;;;;;;5094285;28;812;-67
2023/09/27 01:50:55;;;;;;;;;;;;;;;;;;5093238;28;937;-67
2023/09/27 01:53:20;;;;;;;;;;;;;;;;;;5093730;28;1046;-66
2023/09/27 01:55:47;;;;;;;;;;;;;;;;;;5093518;28;844;-66
2023/09/27 01:58:12;;;;;;;;;;;;;;;;;;5092202;28;1031;-67
2023/09/27 02:00:38;;;;;;;;;;;;;;;;;;5093530;28;840;-67
2023/09/27 02:03:03;;;;;;;;;;;;;;;;;;5090788;28;1953;-66
2023/09/27 02:05:29;;;;;;;;;;;;;;;;;;5092688;28;897;-65
2023/09/27 02:07:55;;;;;;;;;;;;;;;;;;5092180;28;856;-67
2023/09/27 02:10:21;;;;;;;;;;;;;;;;;;5091079;28;1250;-67
2023/09/27 02:12:46;;;;;;;;;;;;;;;;;;5092548;28;856;-67
2023/09/27 02:15:13;;;;;;;;;;;;;;;;;;5091787;28;943;-68
2023/09/27 02:17:39;;;;;;;;;;;;;;;;;;5091284;28;1142;-67
2023/09/27 02:20:09;;;;;;;;;;;;;;;;;;5091394;28;1011;-67
2023/09/27 02:22:35;;;;;;;;;;;;;;;;;;5092328;28;1889;-67
2023/09/27 02:25:00;;;;;;;;;;;;;;;;;;5073360;28;1183;-67
2023/09/27 02:27:25;;;;;;;;;;;;;;;;;;5092429;28;875;-67
2023/09/27 02:29:50;;;;;;;;;;;;;;;;;;5091798;28;1006;-66
2023/09/27 02:32:17;;;;;;;;;;;;;;;;;;5091825;28;828;-66
2023/09/27 02:34:42;;;;;;;;;;;;;;;;;;5090780;28;1216;-66
2023/09/27 02:37:08;;;;;;;;;;;;;;;;;;5090702;28;875;-67
2023/09/27 02:39:33;;;;;;;;;;;;;;;;;;5091704;28;809;-66
2023/09/27 02:41:59;;;;;;;;;;;;;;;;;;5091488;28;839;-66
2023/09/27 02:44:25;;;;;;;;;;;;;;;;;;5090700;28;1980;-67
2023/09/27 02:46:54;;;;;;;;;;;;;;;;;;5092116;28;817;-66
2023/09/27 02:49:20;;;;;;;;;;;;;;;;;;5092071;28;856;-66
2023/09/27 02:51:47;;;;;;;;;;;;;;;;;;5091957;28;985;-67
2023/09/27 02:54:14;;;;;;;;;;;;;;;;;;5091101;28;833;-67
2023/09/27 02:56:39;;;;;;;;;;;;;;;;;;5091004;28;912;-68
2023/09/27 02:59:04;;;;;;;;;;;;;;;;;;5090075;28;1159;-67
2023/09/27 03:01:29;;;;;;;;;;;;;;;;;;5092216;28;801;-67
2023/09/27 03:03:55;;;;;;;;;;;;;;;;;;5091367;28;1901;-67
2023/09/27 03:06:20;;;;;;;;;;;;;;;;;;5092016;28;860;-67
2023/09/27 03:08:48;;;;;;;;;;;;;;;;;;5091948;28;888;-68
2023/09/27 03:11:13;;;;;;;;;;;;;;;;;;5091420;28;888;-67
2023/09/27 03:13:40;;;;;;;;;;;;;;;;;;5091880;28;935;-68
2023/09/27 03:16:05;;;;;;;;;;;;;;;;;;5091073;28;848;-68
2023/09/27 03:18:31;;;;;;;;;;;;;;;;;;5091839;28;958;-67
2023/09/27 03:20:57;;;;;;;;;;;;;;;;;;5091760;28;836;-66
2023/09/27 03:23:22;;;;;;;;;;;;;;;;;;5090361;28;1968;-66
2023/09/27 03:25:49;;;;;;;;;;;;;;;;;;5092262;28;919;-67
2023/09/27 03:28:14;;;;;;;;;;;;;;;;;;5090872;28;1029;-67
2023/09/27 03:30:40;;;;;;;;;;;;;;;;;;5092157;28;816;-67
2023/09/27 03:33:05;;;;;;;;;;;;;;;;;;5090115;28;1076;-66
2023/09/27 03:35:31;;;;;;;;;;;;;;;;;;5091864;28;1069;-67
2023/09/27 03:37:56;;;;;;;;;;;;;;;;;;5091619;28;922;-66
2023/09/27 03:40:22;;;;;;;;;;;;;;;;;;5091796;28;947;-66
2023/09/27 03:42:47;;;;;;;;;;;;;;;;;;5072889;28;1918;-66
2023/09/27 03:45:14;;;;;;;;;;;;;;;;;;5089010;28;937;-66
2023/09/27 03:47:39;;;;;;;;;;;;;;;;;;5090970;28;825;-66
2023/09/27 03:50:04;;;;;;;;;;;;;;;;;;5094255;28;872;-66
2023/09/27 03:52:30;;;;;;;;;;;;;;;;;;5095582;28;911;-66
2023/09/27 03:54:55;;;;;;;;;;;;;;;;;;5093427;28;1271;-66
2023/09/27 03:57:20;;;;;;;;;;;;;;;;;;5094710;28;916;-66
2023/09/27 03:59:45;;;;;;;;;;;;;;;;;;5095180;28;896;-67
2023/09/27 04:02:11;;;;;;;;;;;;;;;;;;5094656;28;825;-67
2023/09/27 04:04:36;;;;;;;;;;;;;;;;;;5099037;28;1898;-67
2023/09/27 04:07:01;;;;;;;;;;;;;;;;;;5107795;28;1147;-67
2023/09/27 04:09:27;;;;;;;;;;;;;;;;;;5086291;28;1243;-67
2023/09/27 04:11:52;;;;;;;;;;;;;;;;;;5115461;28;992;-68
2023/09/27 04:14:17;;;;;;;;;;;;;;;;;;5114859;28;1187;-68
2023/09/27 04:16:43;;;;;;;;;;;;;;;;;;5115187;28;822;-68
2023/09/27 04:19:08;;;;;;;;;;;;;;;;;;5113417;28;1152;-67
2023/09/27 04:21:33;;;;;;;;;;;;;;;;;;5115332;28;864;-67
2023/09/27 04:23:59;;;;;;;;;;;;;;;;;;5114289;28;1901;-67
2023/09/27 04:26:25;;;;;;;;;;;;;;;;;;5115392;28;887;-67
2023/09/27 04:28:50;;;;;;;;;;;;;;;;;;5114192;28;904;-67
2023/09/27 04:31:16;;;;;;;;;;;;;;;;;;5113077;28;892;-67
2023/09/27 04:33:44;;;;;;;;;;;;;;;;;;5114884;28;1352;-67
2023/09/27 04:36:15;;;;;;;;;;;;;;;;;;5112828;28;868;-67
2023/09/27 04:38:40;;;;;;;;;;;;;;;;;;5113310;28;906;-67
2023/09/27 04:41:06;;;;;;;;;;;;;;;;;;5113866;28;995;-67
2023/09/27 04:43:31;;;;;;;;;;;;;;;;;;5113823;28;1989;-68
2023/09/27 04:45:56;;;;;;;;;;;;;;;;;;5114483;28;920;-67
2023/09/27 04:48:22;;;;;;;;;;;;;;;;;;5114364;28;785;-67
2023/09/27 04:50:47;;;;;;;;;;;;;;;;;;5114312;28;896;-66
2023/09/27 04:53:12;;;;;;;;;;;;;;;;;;5114250;28;887;-66
2023/09/27 04:55:38;;;;;;;;;;;;;;;;;;5114370;28;850;-66
2023/09/27 04:58:03;;;;;;;;;;;;;;;;;;5113856;28;928;-66
2023/09/27 05:00:28;;;;;;;;;;;;;;;;;;5114280;28;938;-67
2023/09/27 05:02:54;;;;;;;;;;;;;;;;;;5114869;27;1981;-67
2023/09/27 05:05:19;;;;;;;;;;;;;;;;;;5113322;28;1836;-67
2023/09/27 05:07:44;;;;;;;;;;;;;;;;;;5114947;28;888;-67
2023/09/27 05:10:10;;;;;;;;;;;;;;;;;;5114401;28;919;-67
2023/09/27 05:12:35;;;;;;;;;;;;;;;;;;5114940;28;832;-67
2023/09/27 05:15:00;;;;;;;;;;;;;;;;;;5114355;28;974;-67
2023/09/27 05:17:26;;;;;;;;;;;;;;;;;;5115242;28;920;-67
2023/09/27 05:19:51;;;;;;;;;;;;;;;;;;5113401;28;837;-68
2023/09/27 05:22:19;;;;;;;;;;;;;;;;;;5113982;28;1042;-67
2023/09/27 05:24:44;;;;;;;;;;;;;;;;;;5113071;28;1898;-67
2023/09/27 05:27:09;;;;;;;;;;;;;;;;;;5111782;28;1151;-66
2023/09/27 05:29:35;;;;;;;;;;;;;;;;;;5107238;28;1965;-67
2023/09/27 05:32:01;;;;;;;;;;;;;;;;;;5114737;28;860;-67
2023/09/27 05:34:28;;;;;;;;;;;;;;;;;;5114684;27;1096;-67
2023/09/27 05:36:54;;;;;;;;;;;;;;;;;;5113579;28;903;-67
2023/09/27 05:39:19;;;;;;;;;;;;;;;;;;5114093;28;909;-67
2023/09/27 05:41:44;;;;;;;;;;;;;;;;;;5114502;28;832;-67
2023/09/27 05:44:10;;;;;;;;;;;;;;;;;;5113820;28;1902;-67
2023/09/27 05:46:36;;;;;;;;;;;;;;;;;;5114481;28;844;-67
2023/09/27 05:49:02;;;;;;;;;;;;;;;;;;5114140;28;844;-67
2023/09/27 05:51:30;;;;;;;;;;;;;;;;;;5095463;28;1341;-67
2023/09/27 05:53:56;;;;;;;;;;;;;;;;;;5112666;28;1897;-67
2023/09/27 05:56:21;;;;;;;;;;;;;;;;;;5113445;28;919;-67
2023/09/27 05:58:46;;;;;;;;;;;;;;;;;;5114008;28;994;-67
2023/09/27 06:01:12;;;;;;;;;;;;;;;;;;5112918;28;884;-67
2023/09/27 06:03:38;;;;;;;;;;;;;;;;;;5113976;28;1957;-67
2023/09/27 06:06:04;;;;;;;;;;;;;;;;;;5112960;28;901;-67
2023/09/27 06:08:29;;;;;;;;;;;;;;;;;;5113385;28;813;-66
2023/09/27 06:10:55;;;;;;;;;;;;;;;;;;5113506;28;1173;-66
2023/09/27 06:13:21;;;;;;;;;;;;;;;;;;5109809;28;868;-67
2023/09/27 06:15:46;;;;;;;;;;;;;;;;;;5113734;28;797;-67
2023/09/27 06:18:12;;;;;;;;;;;;;;;;;;5112922;28;865;-65
2023/09/27 06:20:38;;;;;;;;;;;;;;;;;;5112293;28;1340;-66
2023/09/27 06:23:04;;;;;;;;;;;;;;;;;;5113523;28;1889;-66
2023/09/27 06:25:30;;;;;;;;;;;;;;;;;;5114127;28;915;-66
2023/09/27 06:27:56;;;;;;;;;;;;;;;;;;5111908;28;895;-66
2023/09/27 06:30:22;;;;;;;;;;;;;;;;;;5115541;28;1018;-66
2023/09/27 06:32:48;;;;;;;;;;;;;;;;;;5114410;28;830;-67
2023/09/27 06:35:14;;;;;;;;;;;;;;;;;;5113063;28;1318;-66
2023/09/27 06:37:43;;;;;;;;;;;;;;;;;;5113513;28;876;-66
2023/09/27 06:40:09;;;;;;;;;;;;;;;;;;5115068;28;860;-66
2023/09/27 06:42:35;;;;;;;;;;;;;;;;;;5116534;28;1965;-66
2023/09/27 06:45:01;;;;;;;;;;;;;;;;;;5115506;28;927;-66
2023/09/27 06:47:27;;;;;;;;;;;;;;;;;;5113553;28;1388;-66
2023/09/27 06:49:53;;;;;;;;;;;;;;;;;;5114997;27;903;-67
2023/09/27 06:52:20;;;;;;;;;;;;;;;;;;5114001;28;874;-67
2023/09/27 06:54:45;;;;;;;;;;;;;;;;;;5115817;28;914;-67
2023/09/27 06:57:11;;;;;;;;;;;;;;;;;;5115004;28;907;-67
2023/09/27 06:59:36;;;;;;;;;;;;;;;;;;5116218;28;943;-68
2023/09/27 07:02:01;;;;;;;;;;;;;;;;;;5116571;28;883;-67
2023/09/27 07:04:27;;;;;;;;;;;;;;;;;;5113170;28;1898;-68
2023/09/27 07:06:52;;;;;;;;;;;;;;;;;;5112801;28;1254;-67
2023/09/27 07:09:20;;;;;;;;;;;;;;;;;;5113698;28;907;-68
2023/09/27 07:11:45;;;;;;;;;;;;;;;;;;5113955;28;931;-67
2023/09/27 07:14:12;;;;;;;;;;;;;;;;;;5111331;28;840;-68
2023/09/27 07:16:37;;;;;;;;;;;;;;;;;;5112094;28;844;-68
2023/09/27 07:19:05;;;;;;;;;;;;;;;;;;5112249;28;1050;-67
2023/09/27 07:21:30;;;;;;;;;;;;;;;;;;5112395;28;864;-67
2023/09/27 07:23:56;;;;;;;;;;;;;;;;;;5112154;28;1897;-68
2023/09/27 07:26:21;;;;;;;;;;;;;;;;;;5111490;28;964;-67
2023/09/27 07:28:46;;;;;;;;;;;;;;;;;;5112211;28;863;-67
2023/09/27 07:31:16;;;;;;;;;;;;;;;;;;5111803;28;919;-67
2023/09/27 07:33:46;;;;;;;;;;;;;;;;;;5110922;28;1274;-67
2023/09/27 07:36:14;;;;;;;;;;;;;;;;;;5111585;28;1198;-67
2023/09/27 07:38:39;;;;;;;;;;;;;;;;;;5110103;28;1624;-67
2023/09/27 07:41:05;;;;;;;;;;;;;;;;;;5111533;28;951;-66
2023/09/27 07:43:30;;;;;;;;;;;;;;;;;;5110690;28;1914;-68
2023/09/27 07:45:55;;;;;;;;;;;;;;;;;;5111693;28;859;-67
2023/09/27 07:48:21;;;;;;;;;;;;;;;;;;5109251;28;1155;-68
2023/09/27 07:50:47;;;;;;;;;;;;;;;;;;5111562;28;832;-67
2023/09/27 07:53:12;;;;;;;;;;;;;;;;;;5110764;28;930;-67
2023/09/27 07:55:50;;;;;;;;;;;;;;;;;;5111754;28;931;-67
2023/09/27 07:58:16;;;;;;;;;;;;;;;;;;5102009;28;1178;-67
2023/09/27 08:00:41;;;;;;;;;;;;;;;;;;5101202;28;1183;-67
2023/09/27 08:03:10;;;;;;;;;;;;;;;;;;5090254;28;1911;-67
2023/09/27 08:05:42;;;;;;;;;;;;;;;;;;5091610;28;1183;-67
2023/09/27 08:08:09;;;;;;;;;;;;;;;;;;5104853;28;1036;-67
2023/09/27 08:10:34;;;;;;;;;;;;;;;;;;5111963;28;904;-67
2023/09/27 08:13:00;;;;;;;;;;;;;;;;;;5107422;28;1194;-67
2023/09/27 08:15:25;;;;;;;;;;;;;;;;;;5110268;28;1014;-68
2023/09/27 08:17:50;;;;;;;;;;;;;;;;;;5111227;28;796;-67
2023/09/27 08:20:15;;;;;;;;;;;;;;;;;;5111449;28;951;-67
2023/09/27 08:22:41;;;;;;;;;;;;;;;;;;5110700;28;1975;-68
2023/09/27 08:25:14;;;;;;;;;;;;;;;;;;5109307;28;904;-67
2023/09/27 08:27:40;;;;;;;;;;;;;;;;;;5110272;28;581;-67
2023/09/27 08:30:05;;;;;;;;;;;;;;;;;;5110892;28;821;-67
2023/09/27 08:32:31;;;;;;;;;;;;;;;;;;5110645;28;801;-66
2023/09/27 08:34:56;;;;;;;;;;;;;;;;;;5111343;28;1200;-66
2023/09/27 08:37:21;;;;;;;;;;;;;;;;;;5114530;28;1042;-66
2023/09/27 08:39:47;;;;;;;;;;;;;;;;;;5114694;28;966;-67
2023/09/27 08:42:13;;;;;;;;;;;;;;;;;;5113619;28;789;-66
2023/09/27 08:44:39;;;;;;;;;;;;;;;;;;5114869;28;1969;-66
2023/09/27 08:47:05;;;;;;;;;;;;;;;;;;5115120;28;899;-66
2023/09/27 08:49:30;;;;;;;;;;;;;;;;;;5113157;28;1222;-66
2023/09/27 08:51:56;;;;;;;;;;;;;;;;;;5115341;27;1010;-66
2023/09/27 08:54:22;;;;;;;;;;;;;;;;;;5115008;28;902;-66
2023/09/27 08:56:51;;;;;;;;;;;;;;;;;;5115082;28;876;-66
2023/09/27 08:59:17;;;;;;;;;;;;;;;;;;5114726;28;918;-66
2023/09/27 09:01:43;;;;;;;;;;;;;;;;;;5113006;28;1126;-66
2023/09/27 09:04:08;;;;;;;;;;;;;;;;;;5114586;28;1889;-67
2023/09/27 09:06:35;;;;;;;;;;;;;;;;;;5101632;28;1225;-67
2023/09/27 09:09:04;;;;;;;;;;;;;;;;;;5093475;28;1460;-67
2023/09/27 09:11:30;;;;;;;;;;;;;;;;;;5093801;28;839;-67
2023/09/27 09:14:04;;;;;;;;;;;;;;;;;;5092966;28;935;-66
2023/09/27 09:16:39;;;;;;;;;;;;;;;;;;5092542;28;1267;-66
2023/09/27 09:19:24;;;;;;;;;;;;;;;;;;5093805;28;998;-66
2023/09/27 09:21:56;;;;;;;;;;;;;;;;;;5093386;28;885;-67
2023/09/27 09:24:22;;;;;;;;;;;;;;;;;;5091713;28;1955;-67
2023/09/27 09:26:47;;;;;;;;;;;;;;;;;;5091954;28;1210;-66
2023/09/27 09:29:12;;;;;;;;;;;;;;;;;;5092013;28;1269;-66
2023/09/27 09:31:38;;;;;;;;;;;;;;;;;;5093892;28;818;-67
2023/09/27 09:34:10;;;;;;;;;;;;;;;;;;5093537;28;1143;-67
2023/09/27 09:36:36;;;;;;;;;;;;;;;;;;5093471;28;845;-68
2023/09/27 09:39:04;;;;;;;;;;;;;;;;;;5092161;28;912;-67
2023/09/27 09:41:48;;;;;;;;;;;;;;;;;;5092751;28;880;-67
2023/09/27 09:44:23;;;;;;;;;;;;;;;;;;5092403;28;1955;-67
2023/09/27 09:46:49;;;;;;;;;;;;;;;;;;5092444;28;868;-67
2023/09/27 09:49:18;;;;;;;;;;;;;;;;;;5092807;28;924;-68
2023/09/27 09:51:50;;;;;;;;;;;;;;;;;;5092862;28;967;-67
2023/09/27 09:54:24;;;;;;;;;;;;;;;;;;5092476;28;983;-67
2023/09/27 09:56:50;;;;;;;;;;;;;;;;;;5093127;28;904;-68
2023/09/27 09:59:19;;;;;;;;;;;;;;;;;;5092991;28;829;-67
2023/09/27 10:01:45;;;;;;;;;;;;;;;;;;5092742;28;884;-67
2023/09/27 10:04:11;;;;;;;;;;;;;;;;;;5092888;28;1906;-67
2023/09/27 10:06:37;;;;;;;;;;;;;;;;;;5093333;28;805;-67
2023/09/27 10:09:05;;;;;;;;;;;;;;;;;;5093684;28;875;-67
2023/09/27 10:11:31;;;;;;;;;;;;;;;;;;5093385;28;856;-67
2023/09/27 10:13:56;;;;;;;;;;;;;;;;;;5093901;28;1003;-67
2023/09/27 10:16:23;;;;;;;;;;;;;;;;;;5093566;28;995;-67
2023/09/27 10:18:48;;;;;;;;;;;;;;;;;;5093193;28;868;-67
2023/09/27 10:21:14;;;;;;;;;;;;;;;;;;5093007;28;963;-67
2023/09/27 10:23:45;;;;;;;;;;;;;;;;;;5092103;28;1902;-67
2023/09/27 10:26:18;;;;;;;;;;;;;;;;;;5092813;28;896;-66
2023/09/27 10:29:06;;;;;;;;;;;;;;;;;;5092900;28;852;-67
2023/09/27 10:31:36;;;;;;;;;;;;;;;;;;5092611;28;875;-67
2023/09/27 10:34:02;;;;;;;;;;;;;;;;;;5091802;28;1315;-67
2023/09/27 10:36:29;;;;;;;;;;;;;;;;;;5093022;28;915;-67
2023/09/27 10:38:54;;;;;;;;;;;;;;;;;;5092139;28;851;-66
2023/09/27 10:41:32;;;;;;;;;;;;;;;;;;5091908;28;891;-67
2023/09/27 10:44:00;;;;;;;;;;;;;;;;;;5091858;28;1918;-67
2023/09/27 10:46:26;;;;;;;;;;;;;;;;;;5091577;28;852;-66
2023/09/27 10:48:55;;;;;;;;;;;;;;;;;;5091571;28;840;-66
2023/09/27 10:51:25;;;;;;;;;;;;;;;;;;5091021;28;817;-66
2023/09/27 10:53:51;;;;;;;;;;;;;;;;;;5091654;28;852;-67
2023/09/27 10:56:16;;;;;;;;;;;;;;;;;;5091381;28;888;-67
2023/09/27 10:58:43;;;;;;;;;;;;;;;;;;5091130;28;852;-67
2023/09/27 11:01:11;;;;;;;;;;;;;;;;;;5091835;28;899;-67
2023/09/27 11:03:37;;;;;;;;;;;;;;;;;;5091637;28;1969;-67
2023/09/27 11:06:12;;;;;;;;;;;;;;;;;;5092013;28;994;-67
2023/09/27 11:08:38;;;;;;;;;;;;;;;;;;5091443;28;844;-67
2023/09/27 11:11:07;;;;;;;;;;;;;;;;;;5090084;28;1080;-66
2023/09/27 11:13:32;;;;;;;;;;;;;;;;;;5089734;28;1194;-67
2023/09/27 11:16:11;;;;;;;;;;;;;;;;;;5089736;28;1383;-67
2023/09/27 11:18:42;;;;;;;;;;;;;;;;;;5090936;28;1024;-67
2023/09/27 11:21:16;;;;;;;;;;;;;;;;;;5091768;28;888;-67
2023/09/27 11:23:51;;;;;;;;;;;;;;;;;;5091450;28;1939;-67
2023/09/27 11:26:19;;;;;;;;;;;;;;;;;;5090762;28;900;-67
2023/09/27 11:28:44;;;;;;;;;;;;;;;;;;5089980;28;1384;-68
2023/09/27 11:31:10;;;;;;;;;;;;;;;;;;5091201;28;971;-68
2023/09/27 11:33:35;;;;;;;;;;;;;;;;;;5091150;28;1208;-67
2023/09/27 11:36:05;;;;;;;;;;;;;;;;;;5091415;28;1002;-67
2023/09/27 11:38:30;;;;;;;;;;;;;;;;;;5090858;28;848;-67
2023/09/27 11:40:55;;;;;;;;;;;;;;;;;;5072983;28;1368;-67
2023/09/27 11:43:21;;;;;;;;;;;;;;;;;;5091078;28;1937;-67
2023/09/27 11:45:47;;;;;;;;;;;;;;;;;;5091213;28;797;-68
2023/09/27 11:48:13;;;;;;;;;;;;;;;;;;5091709;28;896;-67
2023/09/27 11:50:39;;;;;;;;;;;;;;;;;;5089941;28;820;-67
2023/09/27 11:53:04;;;;;;;;;;;;;;;;;;5092801;28;1245;-67
2023/09/27 11:55:30;;;;;;;;;;;;;;;;;;5089122;28;1144;-67
2023/09/27 11:57:59;;;;;;;;;;;;;;;;;;5091797;28;920;-67
2023/09/27 12:00:24;;;;;;;;;;;;;;;;;;5092734;28;908;-67
2023/09/27 12:02:50;;;;;;;;;;;;;;;;;;5092680;28;1914;-68
2023/09/27 12:05:16;;;;;;;;;;;;;;;;;;5092149;28;900;-67
2023/09/27 12:07:43;;;;;;;;;;;;;;;;;;5092555;28;883;-67
2023/09/27 12:10:09;;;;;;;;;;;;;;;;;;5074831;28;1241;-67
2023/09/27 12:12:34;;;;;;;;;;;;;;;;;;5096404;28;919;-67
2023/09/27 12:15:00;;;;;;;;;;;;;;;;;;5096168;28;872;-67
2023/09/27 12:17:25;;;;;;;;;;;;;;;;;;5096409;28;876;-67
2023/09/27 12:19:51;;;;;;;;;;;;;;;;;;5096240;28;840;-67
2023/09/27 12:22:16;;;;;;;;;;;;;;;;;;5095199;28;903;-67
2023/09/27 12:24:42;;;;;;;;;;;;;;;;;;5095188;28;1890;-67
2023/09/27 12:27:07;;;;;;;;;;;;;;;;;;5094984;28;832;-67
2023/09/27 12:29:33;;;;;;;;;;;;;;;;;;5095041;28;907;-67
2023/09/27 12:32:00;;;;;;;;;;;;;;;;;;5095054;28;982;-66
2023/09/27 12:34:25;;;;;;;;;;;;;;;;;;5094426;28;1331;-67
2023/09/27 12:36:50;;;;;;;;;;;;;;;;;;5094800;28;880;-67
2023/09/27 12:39:16;;;;;;;;;;;;;;;;;;5092750;28;1335;-66
2023/09/27 12:41:42;;;;;;;;;;;;;;;;;;5094292;28;947;-67
2023/09/27 12:44:07;;;;;;;;;;;;;;;;;;5092813;28;1963;-67
2023/09/27 12:46:32;;;;;;;;;;;;;;;;;;5094457;28;951;-67
2023/09/27 12:48:59;;;;;;;;;;;;;;;;;;5094489;28;987;-67
2023/09/27 12:51:24;;;;;;;;;;;;;;;;;;5092966;28;1471;-67
2023/09/27 12:53:50;;;;;;;;;;;;;;;;;;5094334;28;1067;-67
2023/09/27 12:56:15;;;;;;;;;;;;;;;;;;5092390;28;1372;-67
2023/09/27 12:58:42;;;;;;;;;;;;;;;;;;5092326;28;1054;-67
2023/09/27 13:01:08;;;;;;;;;;;;;;;;;;5093640;28;895;-67
2023/09/27 13:03:33;;;;;;;;;;;;;;;;;;5094718;28;1972;-67
2023/09/27 13:05:58;;;;;;;;;;;;;;;;;;5094944;28;956;-67
2023/09/27 13:08:23;;;;;;;;;;;;;;;;;;5094704;28;774;-66
2023/09/27 13:10:49;;;;;;;;;;;;;;;;;;5094787;28;892;-67
2023/09/27 13:13:15;;;;;;;;;;;;;;;;;;5093805;28;1170;-67
2023/09/27 13:15:40;;;;;;;;;;;;;;;;;;5094143;28;794;-67
2023/09/27 13:18:06;;;;;;;;;;;;;;;;;;5095719;28;821;-68
2023/09/27 13:20:32;;;;;;;;;;;;;;;;;;5094931;28;876;-65
2023/09/27 13:22:57;;;;;;;;;;;;;;;;;;5094058;28;1902;-66
2023/09/27 13:25:22;;;;;;;;;;;;;;;;;;5094264;28;966;-66
2023/09/27 13:27:48;;;;;;;;;;;;;;;;;;5095769;28;931;-67
2023/09/27 13:30:13;;;;;;;;;;;;;;;;;;5094170;28;1147;-67
2023/09/27 13:32:39;;;;;;;;;;;;;;;;;;5095549;28;911;-67
2023/09/27 13:35:05;;;;;;;;;;;;;;;;;;5094754;28;1461;-68
2023/09/27 13:37:31;;;;;;;;;;;;;;;;;;5094574;28;824;-66
2023/09/27 13:39:56;;;;;;;;;;;;;;;;;;5093002;28;1313;-66
2023/09/27 13:42:21;;;;;;;;;;;;;;;;;;5094063;28;816;-66
2023/09/27 13:44:48;;;;;;;;;;;;;;;;;;5093594;28;1979;-66
2023/09/27 13:47:13;;;;;;;;;;;;;;;;;;5093801;28;907;-67
2023/09/27 13:49:38;;;;;;;;;;;;;;;;;;5093904;28;839;-67
2023/09/27 13:52:04;;;;;;;;;;;;;;;;;;5092536;28;1372;-66
2023/09/27 13:54:30;;;;;;;;;;;;;;;;;;5092114;28;1298;-66
2023/09/27 13:56:55;;;;;;;;;;;;;;;;;;5093862;28;1038;-66
2023/09/27 13:59:20;;;;;;;;;;;;;;;;;;5093552;28;844;-66
2023/09/27 14:01:46;;;;;;;;;;;;;;;;;;5093707;28;817;-67
2023/09/27 14:04:11;;;;;;;;;;;;;;;;;;5091498;28;1947;-67
2023/09/27 14:06:36;;;;;;;;;;;;;;;;;;5092974;28;933;-67
2023/09/27 14:09:02;;;;;;;;;;;;;;;;;;5093266;28;924;-67
2023/09/27 14:11:27;;;;;;;;;;;;;;;;;;5093069;28;848;-67
2023/09/27 14:13:52;;;;;;;;;;;;;;;;;;5091878;28;824;-67
2023/09/27 14:16:18;;;;;;;;;;;;;;;;;;5092404;28;746;-66
2023/09/27 14:18:43;;;;;;;;;;;;;;;;;;5093103;28;820;-66
2023/09/27 14:21:10;;;;;;;;;;;;;;;;;;5092380;28;836;-66
2023/09/27 14:23:36;;;;;;;;;;;;;;;;;;5092547;28;1906;-67
2023/09/27 14:26:02;;;;;;;;;;;;;;;;;;5092260;28;879;-67
2023/09/27 14:28:27;;;;;;;;;;;;;;;;;;5092252;28;847;-67
2023/09/27 14:30:52;;;;;;;;;;;;;;;;;;5092782;28;829;-67
2023/09/27 14:33:18;;;;;;;;;;;;;;;;;;5090841;28;1068;-66
2023/09/27 14:35:46;;;;;;;;;;;;;;;;;;5092657;28;809;-66
2023/09/27 14:38:12;;;;;;;;;;;;;;;;;;5092382;28;883;-66
2023/09/27 14:40:37;;;;;;;;;;;;;;;;;;5091639;28;888;-67
2023/09/27 14:43:03;;;;;;;;;;;;;;;;;;5092048;28;1905;-67
2023/09/27 14:45:29;;;;;;;;;;;;;;;;;;5092135;28;841;-67
2023/09/27 14:47:55;;;;;;;;;;;;;;;;;;5092466;28;873;-67
2023/09/27 14:50:20;;;;;;;;;;;;;;;;;;5092154;28;836;-66
2023/09/27 14:52:45;;;;;;;;;;;;;;;;;;5091752;28;872;-67
2023/09/27 14:55:15;;;;;;;;;;;;;;;;;;5091429;28;899;-67
2023/09/27 14:57:41;;;;;;;;;;;;;;;;;;5074399;28;1188;-67
2023/09/27 15:00:06;;;;;;;;;;;;;;;;;;5092111;28;934;-67
2023/09/27 15:02:32;;;;;;;;;;;;;;;;;;5092495;28;878;-67
2023/09/27 15:04:57;;;;;;;;;;;;;;;;;;5093145;28;1967;-67
2023/09/27 15:07:22;;;;;;;;;;;;;;;;;;5074300;28;1367;-67
2023/09/27 15:09:48;;;;;;;;;;;;;;;;;;5092955;28;884;-67
2023/09/27 15:12:13;;;;;;;;;;;;;;;;;;5090810;28;1159;-66
2023/09/27 15:14:38;;;;;;;;;;;;;;;;;;5092421;28;993;-66
2023/09/27 15:17:03;;;;;;;;;;;;;;;;;;5091647;28;907;-66
2023/09/27 15:19:29;;;;;;;;;;;;;;;;;;5091344;28;864;-67
2023/09/27 15:21:54;;;;;;;;;;;;;;;;;;5092222;28;1280;-67
2023/09/27 15:24:21;;;;;;;;;;;;;;;;;;5095436;28;1964;-67
2023/09/27 15:26:46;;;;;;;;;;;;;;;;;;5100225;28;1250;-67
2023/09/27 15:29:12;;;;;;;;;;;;;;;;;;5099857;28;1265;-68
2023/09/27 15:31:37;;;;;;;;;;;;;;;;;;5111507;28;837;-68
2023/09/27 15:34:03;;;;;;;;;;;;;;;;;;5111430;28;1216;-67
2023/09/27 15:36:28;;;;;;;;;;;;;;;;;;5111228;28;1117;-67
2023/09/27 15:38:54;;;;;;;;;;;;;;;;;;5105475;28;1159;-67
2023/09/27 15:41:19;;;;;;;;;;;;;;;;;;5099288;28;1361;-67
2023/09/27 15:43:45;;;;;;;;;;;;;;;;;;5098768;28;1913;-67
2023/09/27 15:46:11;;;;;;;;;;;;;;;;;;5098675;28;1183;-66
2023/09/27 15:48:36;;;;;;;;;;;;;;;;;;5091522;28;1121;-67
2023/09/27 15:51:06;;;;;;;;;;;;;;;;;;5091770;28;844;-66
2023/09/27 15:53:31;;;;;;;;;;;;;;;;;;5091777;28;856;-66
2023/09/27 15:55:57;;;;;;;;;;;;;;;;;;5091812;28;868;-66
2023/09/27 15:58:23;;;;;;;;;;;;;;;;;;5089763;28;1344;-67
2023/09/27 16:00:48;;;;;;;;;;;;;;;;;;5091422;28;875;-66
2023/09/27 16:03:13;;;;;;;;;;;;;;;;;;5089069;28;1949;-66
2023/09/27 16:05:39;;;;;;;;;;;;;;;;;;5089725;28;915;-67
2023/09/27 16:08:04;;;;;;;;;;;;;;;;;;5072329;28;1196;-67
2023/09/27 16:10:30;;;;;;;;;;;;;;;;;;5089586;28;1082;-67
2023/09/27 16:12:55;;;;;;;;;;;;;;;;;;5088172;28;1206;-66
2023/09/27 16:15:23;;;;;;;;;;;;;;;;;;5087092;28;947;-67
2023/09/27 16:17:49;;;;;;;;;;;;;;;;;;5088479;28;836;-67
2023/09/27 16:20:14;;;;;;;;;;;;;;;;;;5090094;28;1018;-67
2023/09/27 16:22:39;;;;;;;;;;;;;;;;;;5091434;28;1154;-66
2023/09/27 16:25:05;;;;;;;;;;;;;;;;;;5091364;28;1901;-67
2023/09/27 16:27:31;;;;;;;;;;;;;;;;;;5090228;28;856;-67
2023/09/27 16:29:56;;;;;;;;;;;;;;;;;;5091871;28;907;-67
2023/09/27 16:32:22;;;;;;;;;;;;;;;;;;5090606;28;915;-67
2023/09/27 16:34:47;;;;;;;;;;;;;;;;;;5091403;28;1155;-67
2023/09/27 16:37:12;;;;;;;;;;;;;;;;;;5091193;28;923;-67
2023/09/27 16:39:38;;;;;;;;;;;;;;;;;;5090974;28;911;-67
2023/09/27 16:42:03;;;;;;;;;;;;;;;;;;5091988;28;844;-67
2023/09/27 16:44:30;;;;;;;;;;;;;;;;;;5091514;28;1978;-68
2023/09/27 16:46:55;;;;;;;;;;;;;;;;;;5092004;28;840;-68
2023/09/27 16:49:20;;;;;;;;;;;;;;;;;;5091206;28;833;-68
2023/09/27 16:51:46;;;;;;;;;;;;;;;;;;5091370;28;908;-67
2023/09/27 16:54:11;;;;;;;;;;;;;;;;;;5090328;28;888;-67
2023/09/27 16:56:36;;;;;;;;;;;;;;;;;;5092429;28;1140;-68
2023/09/27 16:59:02;;;;;;;;;;;;;;;;;;5095080;28;848;-67
2023/09/27 17:01:28;;;;;;;;;;;;;;;;;;5094628;28;935;-67
2023/09/27 17:03:53;;;;;;;;;;;;;;;;;;5094573;28;1964;-67
2023/09/27 17:06:19;;;;;;;;;;;;;;;;;;5094077;28;975;-67